Time;durP1;ratioP1;P1;durP2;ratioP2;P2;SDS_P1;SDS_P2;PMS_P1;PMS_P2;Temp;Humidity;BMP_temperature;BMP_pressure;BME280_temperature;BME280_humidity;BME280_pressure;Samples;Min_cycle;Max_cycle;Signal;HPM_P1;HPM_P2
2023/12/17 00:01:27;;;;;;;;;;;18.80;62.40;;;;;;5063870;28;1315;-69
2023/12/17 00:03:52;;;;;;;;;;;18.80;62.40;;;;;;5061716;28;1440;-70
2023/12/17 00:06:18;;;;;;;;;;;18.80;62.40;;;;;;5060386;28;1662;-68
2023/12/17 00:08:43;;;;;;;;;;;18.80;62.40;;;;;;5059209;28;1456;-70
2023/12/17 00:11:09;;;;;;;;;;;18.80;62.40;;;;;;5059141;28;1984;-70
2023/12/17 00:13:35;;;;;;;;;;;18.80;62.50;;;;;;5058185;28;1364;-70
2023/12/17 00:16:01;;;;;;;;;;;18.80;62.50;;;;;;5058496;28;1253;-70
2023/12/17 00:18:27;;;;;;;;;;;18.80;62.50;;;;;;5058986;28;1996;-70
2023/12/17 00:20:52;;;;;;;;;;;18.80;62.50;;;;;;5060970;28;1464;-70
2023/12/17 00:23:17;;;;;;;;;;;18.80;62.50;;;;;;5060697;28;1507;-70
2023/12/17 00:25:43;;;;;;;;;;;18.80;62.50;;;;;;5061160;28;1289;-71
2023/12/17 00:28:08;;;;;;;;;;;18.80;62.50;;;;;;5060725;28;1354;-70
2023/12/17 00:30:34;;;;;;;;;;;18.80;62.50;;;;;;5060320;28;1436;-70
2023/12/17 00:32:59;;;;;;;;;;;18.80;62.60;;;;;;5058639;28;1307;-69
2023/12/17 00:35:25;;;;;;;;;;;18.80;62.50;;;;;;5063651;28;1450;-70
2023/12/17 00:37:50;;;;;;;;;;;18.80;62.50;;;;;;5056011;28;1967;-71
2023/12/17 00:40:16;;;;;;;;;;;18.80;62.60;;;;;;5060694;28;1276;-71
2023/12/17 00:42:41;;;;;;;;;;;18.80;62.60;;;;;;5062812;28;1423;-70
2023/12/17 00:45:07;;;;;;;;;;;18.80;62.60;;;;;;5095290;28;1310;-71
2023/12/17 00:47:32;;;;;;;;;;;18.80;62.60;;;;;;5061297;28;1293;-71
2023/12/17 00:49:58;;;;;;;;;;;18.70;62.60;;;;;;5060390;28;1309;-71
2023/12/17 00:52:23;;;;;;;;;;;18.80;62.70;;;;;;5062281;28;1671;-70
2023/12/17 00:54:49;;;;;;;;;;;18.70;62.60;;;;;;5059436;28;1344;-71
2023/12/17 00:57:14;;;;;;;;;;;18.70;62.60;;;;;;5060255;28;1984;-71
2023/12/17 00:59:40;;;;;;;;;;;18.70;62.70;;;;;;5074366;28;1291;-72
2023/12/17 01:02:06;;;;;;;;;;;18.70;62.60;;;;;;5058758;28;1536;-70
2023/12/17 01:04:31;;;;;;;;;;;18.70;62.60;;;;;;5056884;28;1392;-70
2023/12/17 01:06:57;;;;;;;;;;;18.70;62.70;;;;;;5091746;28;1387;-69
2023/12/17 01:09:22;;;;;;;;;;;18.70;62.70;;;;;;5061631;28;1521;-70
2023/12/17 01:11:48;;;;;;;;;;;18.70;62.70;;;;;;5045942;28;1295;-70
2023/12/17 01:14:14;;;;;;;;;;;18.70;62.70;;;;;;5091963;28;1357;-69
2023/12/17 01:16:39;;;;;;;;;;;18.70;62.70;;;;;;5060447;28;1902;-69
2023/12/17 01:19:05;;;;;;;;;;;18.70;62.70;;;;;;5059341;28;1383;-69
2023/12/17 01:21:30;;;;;;;;;;;18.70;62.80;;;;;;5058204;28;1144;-69
2023/12/17 01:23:57;;;;;;;;;;;18.70;62.70;;;;;;5058500;28;1628;-69
2023/12/17 01:26:29;;;;;;;;;;;18.70;62.80;;;;;;5092715;28;1334;-70
2023/12/17 01:28:54;;;;;;;;;;;18.70;62.80;;;;;;5089679;28;1476;-70
2023/12/17 01:31:20;;;;;;;;;;;18.70;62.80;;;;;;5058890;28;1521;-69
2023/12/17 01:33:45;;;;;;;;;;;18.70;62.80;;;;;;5059041;28;1052;-70
2023/12/17 01:36:11;;;;;;;;;;;18.70;62.80;;;;;;5092290;28;1901;-70
2023/12/17 01:38:36;;;;;;;;;;;18.70;62.80;;;;;;5091858;28;1284;-69
2023/12/17 01:41:02;;;;;;;;;;;18.70;62.90;;;;;;5059216;28;954;-69
2023/12/17 01:43:28;;;;;;;;;;;18.70;62.80;;;;;;5074880;28;1285;-70
2023/12/17 01:45:53;;;;;;;;;;;18.70;62.80;;;;;;5058814;28;1038;-69
2023/12/17 01:48:19;;;;;;;;;;;18.70;62.80;;;;;;5090472;28;1141;-69
2023/12/17 01:50:44;;;;;;;;;;;18.70;62.90;;;;;;5058957;28;1185;-69
2023/12/17 01:53:10;;;;;;;;;;;18.70;62.90;;;;;;5090511;28;1248;-70
2023/12/17 01:55:35;;;;;;;;;;;18.70;62.90;;;;;;5093052;28;1187;-69
2023/12/17 01:58:02;;;;;;;;;;;18.70;62.90;;;;;;5058020;28;1971;-70
2023/12/17 02:00:28;;;;;;;;;;;18.70;62.90;;;;;;5061916;28;1443;-70
2023/12/17 02:02:53;;;;;;;;;;;18.70;62.90;;;;;;5059007;28;1313;-69
2023/12/17 02:05:19;;;;;;;;;;;18.70;62.90;;;;;;5059576;28;1386;-69
2023/12/17 02:07:44;;;;;;;;;;;18.70;62.90;;;;;;5057853;28;1637;-69
2023/12/17 02:10:10;;;;;;;;;;;18.70;62.90;;;;;;5058567;28;1375;-69
2023/12/17 02:12:35;;;;;;;;;;;18.70;63.00;;;;;;5092061;28;1389;-70
2023/12/17 02:15:00;;;;;;;;;;;18.70;63.00;;;;;;5055565;28;1323;-70
2023/12/17 02:17:27;;;;;;;;;;;18.70;63.00;;;;;;5056794;28;1910;-70
2023/12/17 02:19:52;;;;;;;;;;;18.70;63.00;;;;;;5057375;28;1375;-70
2023/12/17 02:22:18;;;;;;;;;;;18.70;63.00;;;;;;5057681;28;1295;-69
2023/12/17 02:24:43;;;;;;;;;;;18.60;62.90;;;;;;5056183;28;1306;-70
2023/12/17 02:27:09;;;;;;;;;;;18.70;63.00;;;;;;5061090;28;1346;-70
2023/12/17 02:29:34;;;;;;;;;;;18.60;62.90;;;;;;5056653;28;1393;-71
2023/12/17 02:32:00;;;;;;;;;;;18.70;63.00;;;;;;5058475;28;1365;-69
2023/12/17 02:34:25;;;;;;;;;;;18.60;62.90;;;;;;5059899;28;1468;-69
2023/12/17 02:36:51;;;;;;;;;;;18.60;63.00;;;;;;5058225;28;1918;-69
2023/12/17 02:39:16;;;;;;;;;;;18.70;63.00;;;;;;5058820;28;1626;-69
2023/12/17 02:41:41;;;;;;;;;;;18.60;63.00;;;;;;5054729;28;1364;-69
2023/12/17 02:44:07;;;;;;;;;;;18.60;63.00;;;;;;5057188;28;1462;-70
2023/12/17 02:46:32;;;;;;;;;;;18.60;63.00;;;;;;5057760;28;1280;-70
2023/12/17 02:48:58;;;;;;;;;;;18.60;63.00;;;;;;5059435;28;1360;-69
2023/12/17 02:51:23;;;;;;;;;;;18.60;63.00;;;;;;5057119;28;1559;-69
2023/12/17 02:53:49;;;;;;;;;;;18.60;63.00;;;;;;5057755;28;1353;-70
2023/12/17 02:56:14;;;;;;;;;;;18.60;63.00;;;;;;5058986;28;1973;-69
2023/12/17 02:58:40;;;;;;;;;;;18.60;63.00;;;;;;5056823;28;1292;-69
2023/12/17 03:01:05;;;;;;;;;;;18.60;63.10;;;;;;5058615;28;1353;-70
2023/12/17 03:03:30;;;;;;;;;;;18.60;63.00;;;;;;5057262;28;1417;-69
2023/12/17 03:05:56;;;;;;;;;;;18.60;63.10;;;;;;5057955;28;1300;-70
2023/12/17 03:08:21;;;;;;;;;;;18.60;63.10;;;;;;5057034;28;1451;-70
2023/12/17 03:10:47;;;;;;;;;;;18.60;63.10;;;;;;5056237;28;1452;-70
2023/12/17 03:13:12;;;;;;;;;;;18.60;63.10;;;;;;5081055;28;1421;-69
2023/12/17 03:15:38;;;;;;;;;;;18.60;63.10;;;;;;5059001;28;1446;-70
2023/12/17 03:18:03;;;;;;;;;;;18.60;63.10;;;;;;5059933;28;1977;-69
2023/12/17 03:20:29;;;;;;;;;;;18.60;63.10;;;;;;5059066;28;1285;-69
2023/12/17 03:22:54;;;;;;;;;;;18.60;63.10;;;;;;5056883;28;995;-70
2023/12/17 03:25:19;;;;;;;;;;;18.60;63.10;;;;;;5056182;28;1318;-70
2023/12/17 03:27:45;;;;;;;;;;;18.60;63.10;;;;;;5057001;28;1443;-69
2023/12/17 03:30:11;;;;;;;;;;;18.60;63.10;;;;;;5058177;28;1529;-69
2023/12/17 03:32:36;;;;;;;;;;;18.60;63.10;;;;;;5057097;28;1398;-70
2023/12/17 03:35:01;;;;;;;;;;;18.60;63.20;;;;;;5057911;28;1561;-69
2023/12/17 03:37:27;;;;;;;;;;;18.60;63.20;;;;;;5059696;28;1959;-70
2023/12/17 03:39:52;;;;;;;;;;;18.60;63.20;;;;;;5056909;28;1660;-70
2023/12/17 03:42:18;;;;;;;;;;;18.60;63.10;;;;;;5090920;28;1299;-69
2023/12/17 03:44:45;;;;;;;;;;;18.60;63.20;;;;;;5054541;28;969;-70
2023/12/17 03:47:10;;;;;;;;;;;18.60;63.20;;;;;;5058261;28;1417;-70
2023/12/17 03:49:35;;;;;;;;;;;18.60;63.20;;;;;;5059573;28;1311;-70
2023/12/17 03:52:01;;;;;;;;;;;18.60;63.20;;;;;;5058154;28;1388;-71
2023/12/17 03:54:27;;;;;;;;;;;18.60;63.20;;;;;;5056228;28;1642;-71
2023/12/17 03:56:52;;;;;;;;;;;18.60;63.20;;;;;;5055441;28;1909;-70
2023/12/17 03:59:18;;;;;;;;;;;18.60;63.20;;;;;;5056726;28;1347;-71
2023/12/17 04:01:46;;;;;;;;;;;18.60;63.20;;;;;;5057218;28;1446;-71
2023/12/17 04:04:13;;;;;;;;;;;18.60;63.30;;;;;;5054264;28;1525;-70
2023/12/17 04:06:42;;;;;;;;;;;18.60;63.20;;;;;;5055432;28;1302;-71
2023/12/17 04:09:08;;;;;;;;;;;18.60;63.20;;;;;;5059805;28;1474;-71
2023/12/17 04:11:33;;;;;;;;;;;18.60;63.30;;;;;;5075363;28;1277;-71
2023/12/17 04:13:58;;;;;;;;;;;18.60;63.30;;;;;;5062108;28;1386;-71
2023/12/17 04:16:24;;;;;;;;;;;18.60;63.30;;;;;;5095169;28;1906;-71
2023/12/17 04:18:49;;;;;;;;;;;18.60;63.30;;;;;;5060606;28;1383;-70
2023/12/17 04:21:15;;;;;;;;;;;18.50;63.20;;;;;;5093881;28;1485;-71
2023/12/17 04:23:40;;;;;;;;;;;18.50;63.20;;;;;;5061738;28;1507;-71
2023/12/17 04:26:06;;;;;;;;;;;18.50;63.20;;;;;;5094182;28;1275;-70
2023/12/17 04:28:32;;;;;;;;;;;18.60;63.30;;;;;;5060080;28;1284;-71
2023/12/17 04:30:57;;;;;;;;;;;18.50;63.20;;;;;;5059086;28;1529;-70
2023/12/17 04:33:22;;;;;;;;;;;18.50;63.20;;;;;;5063858;28;1569;-69
2023/12/17 04:35:48;;;;;;;;;;;18.60;63.30;;;;;;5060756;28;1275;-70
2023/12/17 04:38:16;;;;;;;;;;;18.50;63.20;;;;;;5091446;28;1902;-69
2023/12/17 04:40:45;;;;;;;;;;;18.50;63.30;;;;;;5058325;28;1484;-69
2023/12/17 04:43:11;;;;;;;;;;;18.50;63.30;;;;;;5056871;28;1329;-69
2023/12/17 04:45:36;;;;;;;;;;;18.50;63.30;;;;;;5057983;28;1285;-69
2023/12/17 04:48:01;;;;;;;;;;;18.50;63.30;;;;;;5060483;28;1295;-69
2023/12/17 04:50:27;;;;;;;;;;;18.50;63.30;;;;;;5061013;28;1445;-69
2023/12/17 04:52:52;;;;;;;;;;;18.50;63.30;;;;;;5058024;28;1415;-70
2023/12/17 04:55:18;;;;;;;;;;;18.50;63.30;;;;;;5059918;28;1234;-69
2023/12/17 04:57:43;;;;;;;;;;;18.50;63.30;;;;;;5059311;28;1925;-69
2023/12/17 05:00:09;;;;;;;;;;;18.50;63.40;;;;;;5056856;28;1543;-70
2023/12/17 05:02:35;;;;;;;;;;;18.50;63.40;;;;;;5058035;28;1461;-70
2023/12/17 05:05:00;;;;;;;;;;;18.50;63.40;;;;;;5057405;28;1683;-70
2023/12/17 05:07:26;;;;;;;;;;;18.50;63.40;;;;;;5059256;28;1786;-70
2023/12/17 05:09:52;;;;;;;;;;;18.50;63.30;;;;;;5057455;28;1530;-71
2023/12/17 05:12:18;;;;;;;;;;;18.60;63.30;;;;;;5059069;28;1371;-71
2023/12/17 05:14:43;;;;;;;;;;;18.60;63.20;;;;;;5056588;28;1279;-69
2023/12/17 05:17:09;;;;;;;;;;;18.70;63.20;;;;;;5060930;28;1902;-70
2023/12/17 05:19:34;;;;;;;;;;;18.70;63.20;;;;;;5089634;28;1363;-71
2023/12/17 05:22:00;;;;;;;;;;;18.90;63.90;;;;;;5059701;28;1426;-70
2023/12/17 05:24:25;;;;;;;;;;;18.90;62.70;;;;;;5061230;28;1439;-71
2023/12/17 05:26:51;;;;;;;;;;;19.10;62.50;;;;;;5056961;28;1349;-69
2023/12/17 05:29:16;;;;;;;;;;;19.20;62.10;;;;;;5056366;28;1599;-71
2023/12/17 05:31:42;;;;;;;;;;;19.30;61.80;;;;;;5060657;28;1315;-71
2023/12/17 05:34:08;;;;;;;;;;;19.40;61.40;;;;;;5061035;28;1410;-70
2023/12/17 05:36:34;;;;;;;;;;;19.60;61.20;;;;;;5059225;28;1929;-71
2023/12/17 05:39:00;;;;;;;;;;;19.70;60.90;;;;;;5057213;28;1523;-71
2023/12/17 05:41:25;;;;;;;;;;;19.80;60.60;;;;;;5058228;28;1787;-70
2023/12/17 05:43:51;;;;;;;;;;;19.90;60.30;;;;;;5091531;28;1290;-71
2023/12/17 05:46:16;;;;;;;;;;;20.00;60.10;;;;;;5062987;28;1422;-71
2023/12/17 05:48:42;;;;;;;;;;;20.10;59.90;;;;;;5057343;28;1312;-71
2023/12/17 05:51:08;;;;;;;;;;;20.20;59.70;;;;;;5058141;28;1370;-71
2023/12/17 05:53:33;;;;;;;;;;;20.20;59.50;;;;;;5049724;28;1108;-71
2023/12/17 05:55:59;;;;;;;;;;;20.30;59.30;;;;;;5089732;28;1463;-71
2023/12/17 05:58:24;;;;;;;;;;;20.30;59.10;;;;;;5057998;28;1906;-71
2023/12/17 06:00:50;;;;;;;;;;;20.40;59.00;;;;;;5068476;28;1285;-72
2023/12/17 06:03:15;;;;;;;;;;;20.40;58.90;;;;;;5059291;28;1384;-71
2023/12/17 06:05:40;;;;;;;;;;;20.50;58.80;;;;;;5056603;28;1234;-71
2023/12/17 06:08:06;;;;;;;;;;;20.50;58.70;;;;;;5057068;28;1003;-70
2023/12/17 06:10:31;;;;;;;;;;;20.60;58.60;;;;;;5075706;28;1367;-70
2023/12/17 06:12:57;;;;;;;;;;;20.60;58.50;;;;;;5089784;28;1439;-71
2023/12/17 06:15:22;;;;;;;;;;;20.60;58.40;;;;;;5089676;28;1475;-71
2023/12/17 06:17:48;;;;;;;;;;;20.70;58.40;;;;;;5057224;28;1906;-72
2023/12/17 06:20:13;;;;;;;;;;;20.70;58.30;;;;;;5090041;28;1427;-71
2023/12/17 06:22:39;;;;;;;;;;;20.70;58.20;;;;;;5056653;28;1495;-70
2023/12/17 06:25:04;;;;;;;;;;;20.80;58.20;;;;;;5058113;28;1686;-71
2023/12/17 06:27:31;;;;;;;;;;;20.80;58.20;;;;;;5056928;28;1441;-71
2023/12/17 06:29:57;;;;;;;;;;;20.80;58.10;;;;;;5058650;28;1311;-71
2023/12/17 06:32:22;;;;;;;;;;;20.80;58.10;;;;;;5056539;28;1339;-71
2023/12/17 06:34:48;;;;;;;;;;;20.90;58.10;;;;;;5056672;28;1368;-71
2023/12/17 06:37:13;;;;;;;;;;;20.90;58.10;;;;;;5054910;28;1902;-70
2023/12/17 06:39:42;;;;;;;;;;;20.90;58.00;;;;;;5058251;28;1391;-71
2023/12/17 06:42:10;;;;;;;;;;;20.90;58.00;;;;;;5071339;28;1393;-70
2023/12/17 06:44:36;;;;;;;;;;;20.90;57.90;;;;;;5043458;28;1274;-71
2023/12/17 06:47:01;;;;;;;;;;;21.00;58.00;;;;;;5071115;28;1331;-70
2023/12/17 06:49:27;;;;;;;;;;;21.00;58.00;;;;;;5054409;28;1511;-71
2023/12/17 06:51:52;;;;;;;;;;;21.00;57.90;;;;;;5055626;28;1262;-71
2023/12/17 06:54:18;;;;;;;;;;;21.00;57.90;;;;;;5058632;28;1398;-70
2023/12/17 06:56:44;;;;;;;;;;;21.00;57.90;;;;;;5058139;28;2000;-71
2023/12/17 06:59:09;;;;;;;;;;;21.00;57.90;;;;;;5054638;28;1638;-71
2023/12/17 07:01:35;;;;;;;;;;;21.00;57.90;;;;;;5089016;28;1464;-70
2023/12/17 07:04:01;;;;;;;;;;;21.00;57.90;;;;;;5059039;28;1345;-71
2023/12/17 07:06:27;;;;;;;;;;;21.00;58.00;;;;;;5060029;28;1427;-71
2023/12/17 07:08:53;;;;;;;;;;;21.00;57.90;;;;;;5057984;28;1373;-71
2023/12/17 07:11:18;;;;;;;;;;;21.00;57.90;;;;;;5056830;28;1508;-71
2023/12/17 07:13:44;;;;;;;;;;;21.00;57.90;;;;;;5061009;28;1283;-71
2023/12/17 07:16:20;;;;;;;;;;;21.00;58.00;;;;;;5057079;28;1412;-71
2023/12/17 07:18:45;;;;;;;;;;;21.00;57.90;;;;;;5088068;28;1909;-71
2023/12/17 07:21:11;;;;;;;;;;;21.00;58.00;;;;;;5057053;28;1255;-70
2023/12/17 07:23:36;;;;;;;;;;;21.00;58.60;;;;;;5058036;28;1572;-70
2023/12/17 07:26:02;;;;;;;;;;;20.90;58.00;;;;;;5051846;28;1940;-71
2023/12/17 07:28:27;;;;;;;;;;;20.80;57.50;;;;;;5056806;28;1606;-70
2023/12/17 07:30:55;;;;;;;;;;;20.80;56.90;;;;;;5058805;28;1304;-71
2023/12/17 07:33:20;;;;;;;;;;;20.80;57.10;;;;;;5058171;28;1954;-70
2023/12/17 07:35:46;;;;;;;;;;;20.70;57.20;;;;;;5055550;28;2361;-72
2023/12/17 07:38:12;;;;;;;;;;;20.70;57.40;;;;;;5058129;28;1929;-71
2023/12/17 07:40:39;;;;;;;;;;;20.70;57.50;;;;;;5053281;28;2411;-70
2023/12/17 07:43:05;;;;;;;;;;;20.70;57.70;;;;;;5059430;28;2149;-71
2023/12/17 07:45:31;;;;;;;;;;;20.70;58.10;;;;;;5096107;28;1250;-71
2023/12/17 07:47:56;;;;;;;;;;;20.60;58.40;;;;;;5063565;28;1282;-71
2023/12/17 07:50:22;;;;;;;;;;;20.60;58.60;;;;;;5059312;28;1367;-70
2023/12/17 07:52:47;;;;;;;;;;;20.60;58.80;;;;;;5093681;28;1423;-70
2023/12/17 07:55:13;;;;;;;;;;;20.60;59.50;;;;;;5059720;28;1482;-71
2023/12/17 07:57:38;;;;;;;;;;;20.60;59.70;;;;;;5093342;28;1910;-71
2023/12/17 08:00:04;;;;;;;;;;;20.60;60.60;;;;;;5062754;28;1303;-71
2023/12/17 08:02:30;;;;;;;;;;;20.60;60.30;;;;;;5060907;28;1968;-71
2023/12/17 08:04:55;;;;;;;;;;;20.60;60.60;;;;;;5062357;28;1184;-71
2023/12/17 08:07:21;;;;;;;;;;;20.60;60.30;;;;;;5060969;28;1304;-71
2023/12/17 08:09:50;;;;;;;;;;;20.60;60.20;;;;;;5059795;28;1312;-71
2023/12/17 08:12:16;;;;;;;;;;;20.60;60.30;;;;;;5062839;28;1564;-71
2023/12/17 08:14:41;;;;;;;;;;;20.60;60.50;;;;;;5058024;28;1356;-70
2023/12/17 08:17:07;;;;;;;;;;;20.50;61.10;;;;;;5057600;28;1987;-71
2023/12/17 08:19:33;;;;;;;;;;;20.50;60.80;;;;;;5062673;28;1716;-71
2023/12/17 08:21:58;;;;;;;;;;;20.50;60.90;;;;;;5058378;28;1371;-71
2023/12/17 08:24:24;;;;;;;;;;;20.50;60.90;;;;;;5093403;28;1395;-71
2023/12/17 08:26:50;;;;;;;;;;;20.50;61.60;;;;;;5059062;28;1180;-71
2023/12/17 08:29:18;;;;;;;;;;;20.40;61.60;;;;;;5060482;28;1348;-71
2023/12/17 08:31:44;;;;;;;;;;;20.40;61.80;;;;;;5092154;28;1353;-70
2023/12/17 08:34:10;;;;;;;;;;;20.40;62.20;;;;;;5089554;28;1421;-71
2023/12/17 08:36:36;;;;;;;;;;;20.40;62.50;;;;;;5061762;28;2108;-71
2023/12/17 08:39:02;;;;;;;;;;;20.40;62.80;;;;;;5061269;28;1453;-71
2023/12/17 08:41:31;;;;;;;;;;;20.40;63.00;;;;;;5058688;28;1954;-71
2023/12/17 08:43:56;;;;;;;;;;;20.40;63.20;;;;;;5060312;28;1313;-71
2023/12/17 08:46:22;;;;;;;;;;;20.40;63.50;;;;;;5062256;28;1233;-71
2023/12/17 08:48:47;;;;;;;;;;;20.40;63.60;;;;;;5059120;28;1526;-71
2023/12/17 08:51:13;;;;;;;;;;;20.40;63.70;;;;;;5057833;28;1328;-71
2023/12/17 08:53:39;;;;;;;;;;;20.40;63.80;;;;;;5059138;28;1330;-71
2023/12/17 08:56:07;;;;;;;;;;;20.40;64.10;;;;;;5060695;28;1364;-71
2023/12/17 08:58:32;;;;;;;;;;;20.40;64.30;;;;;;5057378;28;1972;-70
2023/12/17 09:00:58;;;;;;;;;;;20.40;64.10;;;;;;5057234;28;1449;-71
2023/12/17 09:03:23;;;;;;;;;;;20.40;64.10;;;;;;5059407;28;1639;-71
2023/12/17 09:05:49;;;;;;;;;;;20.40;64.10;;;;;;5090038;28;1390;-71
2023/12/17 09:08:14;;;;;;;;;;;20.40;63.80;;;;;;5057849;28;1380;-71
2023/12/17 09:10:39;;;;;;;;;;;20.40;63.80;;;;;;5062461;28;1563;-71
2023/12/17 09:13:05;;;;;;;;;;;20.40;63.80;;;;;;5058763;28;1503;-71
2023/12/17 09:15:31;;;;;;;;;;;20.40;63.70;;;;;;5057932;28;2080;-71
2023/12/17 09:17:56;;;;;;;;;;;20.40;63.60;;;;;;5058852;28;1993;-71
2023/12/17 09:20:22;;;;;;;;;;;20.40;63.60;;;;;;5059323;28;2454;-71
2023/12/17 09:22:47;;;;;;;;;;;20.40;63.60;;;;;;5056113;28;1433;-71
2023/12/17 09:25:13;;;;;;;;;;;20.40;63.80;;;;;;5057159;28;1279;-70
2023/12/17 09:27:38;;;;;;;;;;;20.40;63.70;;;;;;5060100;28;1030;-70
2023/12/17 09:30:04;;;;;;;;;;;20.40;63.70;;;;;;5058588;28;1312;-71
2023/12/17 09:32:30;;;;;;;;;;;20.40;63.70;;;;;;5059526;28;1618;-71
2023/12/17 09:34:56;;;;;;;;;;;20.40;63.70;;;;;;5091089;28;1594;-71
2023/12/17 09:37:21;;;;;;;;;;;20.40;63.60;;;;;;5056801;28;1902;-71
2023/12/17 09:39:47;;;;;;;;;;;20.40;63.60;;;;;;5061214;28;1335;-70
2023/12/17 09:42:12;;;;;;;;;;;20.40;63.60;;;;;;5055801;28;1319;-70
2023/12/17 09:44:38;;;;;;;;;;;20.40;63.60;;;;;;5059356;28;1949;-71
2023/12/17 09:47:04;;;;;;;;;;;20.40;63.70;;;;;;5054830;28;1534;-71
2023/12/17 09:49:29;;;;;;;;;;;20.40;64.00;;;;;;5056726;28;1466;-71
2023/12/17 09:51:59;;;;;;;;;;;20.50;64.20;;;;;;5091094;28;1486;-71
2023/12/17 09:54:24;;;;;;;;;;;20.50;64.10;;;;;;5059787;28;1439;-71
2023/12/17 09:56:50;;;;;;;;;;;20.50;64.10;;;;;;5061357;28;1887;-71
2023/12/17 09:59:15;;;;;;;;;;;20.50;64.10;;;;;;5091092;28;1489;-71
2023/12/17 10:01:41;;;;;;;;;;;20.50;64.20;;;;;;5059521;28;1584;-71
2023/12/17 10:04:07;;;;;;;;;;;20.50;64.30;;;;;;5056369;28;1469;-71
2023/12/17 10:06:32;;;;;;;;;;;20.50;64.30;;;;;;5058338;28;1645;-71
2023/12/17 10:08:58;;;;;;;;;;;20.50;64.30;;;;;;5055977;28;1383;-71
2023/12/17 10:11:24;;;;;;;;;;;20.50;64.40;;;;;;5059856;28;1600;-71
2023/12/17 10:13:49;;;;;;;;;;;20.50;64.80;;;;;;5058457;28;1567;-71
2023/12/17 10:16:15;;;;;;;;;;;20.50;64.70;;;;;;5059287;28;1348;-71
2023/12/17 10:18:40;;;;;;;;;;;20.50;65.00;;;;;;5057169;28;1977;-71
2023/12/17 10:21:07;;;;;;;;;;;20.50;65.00;;;;;;5056989;28;1978;-71
2023/12/17 10:23:59;;;;;;;;;;;20.40;65.00;;;;;;5056397;28;1385;-72
2023/12/17 10:26:24;;;;;;;;;;;20.40;65.10;;;;;;5056245;28;1472;-71
2023/12/17 10:28:50;;;;;;;;;;;20.40;65.10;;;;;;5057214;28;1364;-71
2023/12/17 10:31:16;;;;;;;;;;;20.40;65.30;;;;;;5089541;28;1410;-70
2023/12/17 10:33:52;;;;;;;;;;;20.40;65.40;;;;;;5088238;28;1170;-71
2023/12/17 10:36:17;;;;;;;;;;;20.40;65.30;;;;;;5051435;28;1472;-70
2023/12/17 10:38:43;;;;;;;;;;;20.40;65.30;;;;;;5090302;28;1901;-71
2023/12/17 10:41:08;;;;;;;;;;;20.40;65.50;;;;;;5058050;28;1521;-71
2023/12/17 10:43:34;;;;;;;;;;;20.40;65.50;;;;;;5056901;28;1540;-71
2023/12/17 10:45:59;;;;;;;;;;;20.30;65.60;;;;;;5087363;28;1373;-71
2023/12/17 10:48:25;;;;;;;;;;;20.30;65.70;;;;;;5058845;28;1352;-71
2023/12/17 10:50:50;;;;;;;;;;;20.30;65.70;;;;;;5055932;28;1470;-71
2023/12/17 10:53:16;;;;;;;;;;;20.30;66.20;;;;;;5053718;28;1044;-71
2023/12/17 10:55:41;;;;;;;;;;;20.30;66.10;;;;;;5055897;28;879;-70
2023/12/17 10:58:12;;;;;;;;;;;20.30;66.30;;;;;;5056015;28;1893;-71
2023/12/17 11:00:37;;;;;;;;;;;20.30;66.20;;;;;;5091815;28;1335;-70
2023/12/17 11:03:06;;;;;;;;;;;20.30;66.20;;;;;;5055997;28;2171;-71
2023/12/17 11:05:31;;;;;;;;;;;20.30;66.40;;;;;;5087301;28;1214;-71
2023/12/17 11:07:57;;;;;;;;;;;20.30;66.20;;;;;;5057810;28;1224;-71
2023/12/17 11:10:23;;;;;;;;;;;20.30;66.10;;;;;;5054485;28;1245;-70
2023/12/17 11:12:48;;;;;;;;;;;20.20;66.10;;;;;;5056924;28;1350;-71
2023/12/17 11:15:14;;;;;;;;;;;20.20;66.20;;;;;;5087809;28;1424;-71
2023/12/17 11:17:40;;;;;;;;;;;20.20;66.20;;;;;;5054453;28;1981;-71
2023/12/17 11:20:05;;;;;;;;;;;20.20;65.90;;;;;;5047187;28;1476;-69
2023/12/17 11:22:35;;;;;;;;;;;20.20;65.80;;;;;;5092753;28;1669;-70
2023/12/17 11:25:00;;;;;;;;;;;20.20;65.80;;;;;;5060319;28;1948;-69
2023/12/17 11:27:26;;;;;;;;;;;20.20;65.70;;;;;;5092033;28;1510;-70
2023/12/17 11:29:52;;;;;;;;;;;20.20;65.90;;;;;;5059902;28;1382;-69
2023/12/17 11:32:18;;;;;;;;;;;20.20;66.00;;;;;;5062178;28;1371;-70
2023/12/17 11:34:48;;;;;;;;;;;20.30;65.90;;;;;;5058573;28;1541;-70
2023/12/17 11:37:18;;;;;;;;;;;20.20;66.00;;;;;;5060641;28;1917;-69
2023/12/17 11:39:43;;;;;;;;;;;20.30;66.10;;;;;;5059084;28;1263;-69
2023/12/17 11:42:09;;;;;;;;;;;20.20;65.90;;;;;;5078762;28;1271;-69
2023/12/17 11:44:34;;;;;;;;;;;20.30;65.90;;;;;;5061479;28;1347;-70
2023/12/17 11:47:00;;;;;;;;;;;20.30;65.80;;;;;;5063028;28;1616;-70
2023/12/17 11:49:25;;;;;;;;;;;20.30;65.70;;;;;;5092465;28;1445;-69
2023/12/17 11:51:51;;;;;;;;;;;20.30;65.60;;;;;;5061052;28;1366;-70
2023/12/17 11:54:17;;;;;;;;;;;20.30;65.60;;;;;;5061390;28;1428;-69
2023/12/17 11:56:43;;;;;;;;;;;20.30;65.70;;;;;;5061037;28;1977;-70
2023/12/17 11:59:08;;;;;;;;;;;20.30;65.70;;;;;;5094665;28;1441;-69
2023/12/17 12:01:34;;;;;;;;;;;20.30;65.60;;;;;;5060060;28;1321;-69
2023/12/17 12:04:00;;;;;;;;;;;20.30;65.80;;;;;;5060496;28;1180;-69
2023/12/17 12:06:26;;;;;;;;;;;20.30;66.10;;;;;;5061028;28;1483;-69
2023/12/17 12:08:51;;;;;;;;;;;20.30;66.10;;;;;;5057189;28;1538;-69
2023/12/17 12:11:18;;;;;;;;;;;20.20;66.00;;;;;;5060353;28;1511;-69
2023/12/17 12:13:45;;;;;;;;;;;20.30;66.00;;;;;;5077442;28;1380;-70
2023/12/17 12:16:11;;;;;;;;;;;20.30;66.00;;;;;;5093737;28;1496;-70
2023/12/17 12:18:37;;;;;;;;;;;20.30;66.30;;;;;;5058225;28;1906;-69
2023/12/17 12:21:02;;;;;;;;;;;20.30;66.50;;;;;;5094220;28;1058;-70
2023/12/17 12:23:28;;;;;;;;;;;20.30;66.40;;;;;;5061522;28;1484;-70
2023/12/17 12:26:00;;;;;;;;;;;20.30;66.30;;;;;;5059232;28;1393;-70
2023/12/17 12:28:25;;;;;;;;;;;20.30;66.40;;;;;;5056531;28;1416;-71
2023/12/17 12:30:51;;;;;;;;;;;20.30;66.60;;;;;;5088190;28;1393;-70
2023/12/17 12:33:17;;;;;;;;;;;20.30;66.60;;;;;;5060067;28;1330;-70
2023/12/17 12:35:43;;;;;;;;;;;20.20;66.70;;;;;;5059879;28;1387;-70
2023/12/17 12:38:24;;;;;;;;;;;20.20;66.80;;;;;;5061006;28;1979;-71
2023/12/17 12:40:50;;;;;;;;;;;20.20;66.90;;;;;;5057102;28;1368;-70
2023/12/17 12:43:21;;;;;;;;;;;20.20;67.10;;;;;;5059870;28;1551;-71
2023/12/17 12:45:46;;;;;;;;;;;20.20;67.10;;;;;;5059158;28;2256;-71
2023/12/17 12:48:19;;;;;;;;;;;20.20;67.00;;;;;;5091688;28;1420;-70
2023/12/17 12:50:44;;;;;;;;;;;20.20;66.90;;;;;;5061362;28;1355;-71
2023/12/17 12:53:10;;;;;;;;;;;20.20;66.90;;;;;;5059165;28;1338;-70
2023/12/17 12:55:35;;;;;;;;;;;20.20;66.90;;;;;;5092839;28;1299;-70
2023/12/17 12:58:01;;;;;;;;;;;20.20;66.90;;;;;;5090787;28;2421;-69
2023/12/17 13:00:27;;;;;;;;;;;20.20;66.90;;;;;;5058800;28;1414;-70
2023/12/17 13:02:52;;;;;;;;;;;20.20;67.00;;;;;;5059797;28;1897;-71
2023/12/17 13:05:22;;;;;;;;;;;20.20;66.60;;;;;;5061116;28;1388;-70
2023/12/17 13:07:50;;;;;;;;;;;20.20;64.30;;;;;;5058097;28;1334;-70
2023/12/17 13:10:16;;;;;;;;;;;20.10;62.10;;;;;;5091802;28;1450;-69
2023/12/17 13:12:42;;;;;;;;;;;20.10;61.00;;;;;;5091107;28;1483;-70
2023/12/17 13:15:08;;;;;;;;;;;20.00;60.40;;;;;;5075529;28;1539;-70
2023/12/17 13:17:34;;;;;;;;;;;19.90;60.10;;;;;;5060739;28;1901;-69
2023/12/17 13:19:59;;;;;;;;;;;19.90;59.70;;;;;;5061306;28;1390;-70
2023/12/17 13:22:25;;;;;;;;;;;19.90;59.40;;;;;;5061779;28;1342;-70
2023/12/17 13:24:51;;;;;;;;;;;19.90;59.20;;;;;;5092942;28;1172;-69
2023/12/17 13:27:17;;;;;;;;;;;19.80;59.00;;;;;;5061929;28;1488;-70
2023/12/17 13:29:42;;;;;;;;;;;19.80;58.90;;;;;;5056453;28;1562;-70
2023/12/17 13:32:08;;;;;;;;;;;19.70;58.60;;;;;;5059349;28;1530;-69
2023/12/17 13:34:33;;;;;;;;;;;19.70;58.60;;;;;;5090501;28;1370;-68
2023/12/17 13:36:59;;;;;;;;;;;19.70;58.40;;;;;;5060646;28;1898;-69
2023/12/17 13:39:24;;;;;;;;;;;19.70;58.40;;;;;;5057010;28;1430;-69
2023/12/17 13:41:50;;;;;;;;;;;19.70;58.30;;;;;;5058434;28;1444;-70
2023/12/17 13:44:15;;;;;;;;;;;19.60;58.10;;;;;;5056334;28;2216;-69
2023/12/17 13:46:41;;;;;;;;;;;19.60;58.00;;;;;;5059270;28;1339;-69
2023/12/17 13:49:07;;;;;;;;;;;19.60;58.00;;;;;;5077535;28;2149;-69
2023/12/17 13:51:33;;;;;;;;;;;19.60;57.90;;;;;;5091381;28;1273;-69
2023/12/17 13:53:58;;;;;;;;;;;19.60;57.80;;;;;;5066309;28;1604;-70
2023/12/17 13:56:25;;;;;;;;;;;19.50;57.60;;;;;;5058613;28;1208;-69
2023/12/17 13:58:53;;;;;;;;;;;19.50;57.50;;;;;;5058390;28;1968;-69
2023/12/17 14:01:21;;;;;;;;;;;19.50;57.40;;;;;;5065464;28;1333;-71
2023/12/17 14:03:49;;;;;;;;;;;19.50;57.30;;;;;;5058009;28;1213;-69
2023/12/17 14:06:15;;;;;;;;;;;19.50;57.20;;;;;;5058081;28;1446;-70
2023/12/17 14:08:41;;;;;;;;;;;19.50;57.10;;;;;;5059996;28;1686;-70
2023/12/17 14:11:06;;;;;;;;;;;19.40;56.90;;;;;;5058972;28;1325;-71
2023/12/17 14:13:32;;;;;;;;;;;19.40;56.90;;;;;;5050526;28;1422;-68
2023/12/17 14:15:58;;;;;;;;;;;19.40;56.80;;;;;;5093186;28;1566;-69
2023/12/17 14:18:23;;;;;;;;;;;19.40;56.80;;;;;;5061044;28;1959;-69
2023/12/17 14:20:49;;;;;;;;;;;19.40;56.60;;;;;;5060846;28;1664;-69
2023/12/17 14:23:14;;;;;;;;;;;19.40;56.50;;;;;;5092192;28;1424;-70